Time;durP1;ratioP1;P1;durP2;ratioP2;P2;SDS_P1;SDS_P2;PMS_P1;PMS_P2;Temp;Humidity;BMP_temperature;BMP_pressure;BME280_temperature;BME280_humidity;BME280_pressure;Samples;Min_cycle;Max_cycle;Signal;HPM_P1;HPM_P2
2023/07/09 00:02:21;;;;;;;8.15;6.65;;;;;;;23.40;43.34;99478.91;5085164;28;20239;-68
2023/07/09 00:04:48;;;;;;;7.35;6.03;;;;;;;23.44;43.53;99482.13;5085415;28;20297;-68
2023/07/09 00:07:19;;;;;;;8.30;6.70;;;;;;;23.41;43.54;99485.16;5085124;28;20086;-68
2023/07/09 00:09:46;;;;;;;6.45;5.75;;;;;;;23.31;44.06;99483.44;5085363;28;20277;-68
2023/07/09 00:12:15;;;;;;;7.05;5.00;;;;;;;23.31;43.69;99490.69;5085284;28;20098;-68
2023/07/09 00:14:43;;;;;;;10.23;7.03;;;;;;;23.35;43.61;99492.91;5084848;28;20355;-68
2023/07/09 00:17:12;;;;;;;9.68;7.07;;;;;;;23.31;43.88;99499.66;5085266;28;20044;-68
2023/07/09 00:19:39;;;;;;;8.50;7.38;;;;;;;23.33;43.65;99483.25;5085480;28;20098;-68
2023/07/09 00:22:17;;;;;;;8.50;6.50;;;;;;;23.19;43.81;99467.63;5085283;28;20051;-68
2023/07/09 00:24:44;;;;;;;6.35;5.40;;;;;;;23.19;43.83;99492.81;5084940;28;20123;-68
2023/07/09 00:27:11;;;;;;;7.40;5.18;;;;;;;23.12;43.88;99494.47;5085198;28;20045;-67
2023/07/09 00:29:38;;;;;;;7.00;4.63;;;;;;;23.12;43.87;99489.06;5085204;28;20044;-68
2023/07/09 00:32:12;;;;;;;6.57;4.57;;;;;;;23.06;43.96;99489.69;5085193;28;20052;-67
2023/07/09 00:34:39;;;;;;;10.15;5.28;;;;;;;22.82;43.86;99449.88;5084256;28;20298;-67
2023/07/09 00:37:12;;;;;;;7.68;4.60;;;;;;;22.98;44.01;99490.50;5085128;28;20129;-68
2023/07/09 00:39:40;;;;;;;7.07;5.03;;;;;;;23.02;43.83;99494.56;5085118;28;20040;-67
2023/07/09 00:42:10;;;;;;;5.60;4.53;;;;;;;23.01;44.04;99498.28;5085328;28;20060;-68
2023/07/09 00:44:37;;;;;;;7.93;5.07;;;;;;;22.96;44.00;99505.19;5085004;28;20041;-68
2023/07/09 00:47:41;;;;;;;7.50;5.35;;;;;;;22.95;44.03;99511.59;5084385;28;20087;-68
2023/07/09 00:50:16;;;;;;;7.38;4.43;;;;;;;22.83;44.39;99507.47;5087281;28;20079;-68
2023/07/09 00:52:50;;;;;;;5.95;4.60;;;;;;;22.89;44.24;99502.28;5088264;28;20040;-68
2023/07/09 00:55:24;;;;;;;8.27;4.70;;;;;;;22.92;44.28;99503.81;5088370;28;20055;-68
2023/07/09 00:57:56;;;;;;;;;;;;;;;22.82;44.46;99498.50;5089752;28;20090;-68
2023/07/09 01:00:25;;;;;;;5.22;4.20;;;;;;;21.82;44.39;99336.09;5088353;28;20255;-68
2023/07/09 01:02:53;;;;;;;5.57;4.05;;;;;;;22.67;44.41;99486.59;5088313;28;20036;-68
2023/07/09 01:05:21;;;;;;;5.97;4.03;;;;;;;22.74;44.67;99498.47;5088004;28;20229;-68
2023/07/09 01:07:48;;;;;;;6.38;4.68;;;;;;;22.66;44.99;99504.66;5088532;28;20045;-68
2023/07/09 01:10:15;;;;;;;6.20;4.65;;;;;;;22.72;44.89;99508.56;5088227;28;20044;-68
2023/07/09 01:12:43;;;;;;;6.63;4.65;;;;;;;22.68;45.00;99501.78;5088473;28;20049;-69
2023/07/09 01:15:11;;;;;;;8.02;5.40;;;;;;;22.70;45.03;99500.63;5088270;28;20040;-68
2023/07/09 01:17:38;;;;;;;4.75;4.00;;;;;;;22.79;44.67;99497.97;5088130;28;20103;-68
2023/07/09 01:20:09;;;;;;;8.73;4.43;;;;;;;22.64;45.00;99498.56;5088843;28;20188;-68
2023/07/09 01:22:37;;;;;;;5.68;4.32;;;;;;;22.57;45.11;99497.50;5087711;28;20200;-68
2023/07/09 01:25:07;;;;;;;6.90;3.88;;;;;;;22.60;45.10;99494.47;5087630;28;20055;-68
2023/07/09 01:27:37;;;;;;;4.63;4.00;;;;;;;22.70;45.16;99495.22;5087874;28;20063;-68
2023/07/09 01:30:08;;;;;;;6.72;4.78;;;;;;;22.62;45.47;99497.88;5087573;28;20048;-69
2023/07/09 01:32:35;;;;;;;8.48;4.93;;;;;;;22.58;45.57;99501.03;5087745;28;20146;-67
2023/07/09 01:35:06;;;;;;;5.72;4.40;;;;;;;22.67;45.14;99500.09;5087659;28;20285;-68
2023/07/09 01:37:36;;;;;;;6.68;4.93;;;;;;;22.59;45.67;99509.00;5087418;28;20269;-69
2023/07/09 01:40:09;;;;;;;8.35;5.05;;;;;;;22.60;45.66;99517.94;5087569;28;20094;-69
2023/07/09 01:42:37;;;;;;;6.90;5.28;;;;;;;22.47;45.95;99503.97;5088428;28;20063;-69
2023/07/09 01:45:05;;;;;;;6.47;4.55;;;;;;;22.49;45.96;99508.22;5087585;28;20399;-69
2023/07/09 01:47:33;;;;;;;6.22;4.88;;;;;;;22.47;45.94;99506.66;5087847;28;20040;-68
2023/07/09 01:49:59;;;;;;;6.53;5.28;;;;;;;22.43;46.05;99500.72;5087493;28;20037;-69
2023/07/09 01:52:29;;;;;;;8.90;5.10;;;;;;;22.37;46.59;99507.56;5087406;28;20052;-69
2023/07/09 01:54:56;;;;;;;7.75;4.97;;;;;;;22.45;46.45;99506.81;5087272;28;20059;-69
2023/07/09 01:57:25;;;;;;;8.05;4.93;;;;;;;22.40;46.70;99510.00;5087566;28;20098;-70
2023/07/09 01:59:54;;;;;;;7.43;4.45;;;;;;;22.30;46.89;99511.91;5087058;28;20111;-69
2023/07/09 02:02:21;;;;;;;5.85;4.75;;;;;;;22.24;47.17;99507.13;5086905;28;20040;-69
2023/07/09 02:04:49;;;;;;;8.57;5.40;;;;;;;22.15;47.23;99493.72;5087145;28;20048;-69
2023/07/09 02:07:16;;;;;;;6.70;4.45;;;;;;;22.29;47.16;99518.31;5087584;28;20094;-69
2023/07/09 02:09:43;;;;;;;6.50;4.93;;;;;;;22.30;46.93;99516.44;5087018;28;20201;-70
2023/07/09 02:12:11;;;;;;;5.53;4.75;;;;;;;22.22;47.28;99510.97;5085850;28;20044;-69
2023/07/09 02:14:40;;;;;;;12.43;5.20;;;;;;;22.18;47.23;99515.84;5086888;28;20239;-69
2023/07/09 02:17:07;;;;;;;5.35;4.60;;;;;;;22.18;47.20;99515.00;5087205;28;20200;-70
2023/07/09 02:19:34;;;;;;;6.00;4.38;;;;;;;22.06;47.64;99527.88;5086587;28;20044;-70
2023/07/09 02:22:00;;;;;;;7.13;5.15;;;;;;;21.93;47.81;99527.41;5086785;28;20049;-70
2023/07/09 02:24:27;;;;;;;6.78;4.63;;;;;;;21.93;47.84;99528.25;5086480;28;20052;-70
2023/07/09 02:26:54;;;;;;;5.72;4.65;;;;;;;21.95;47.62;99525.41;5086460;28;20048;-69
2023/07/09 02:29:21;;;;;;;6.45;4.97;;;;;;;21.96;47.69;99521.69;5086921;28;20040;-70
2023/07/09 02:31:50;;;;;;;6.45;4.72;;;;;;;21.46;47.68;99438.53;5086625;28;20045;-69
2023/07/09 02:34:17;;;;;;;8.45;5.05;;;;;;;22.03;47.55;99531.72;5086591;28;20094;-69
2023/07/09 02:36:44;;;;;;;6.00;5.07;;;;;;;22.08;47.63;99528.56;5086453;28;20051;-70
2023/07/09 02:39:11;;;;;;;5.60;4.50;;;;;;;22.00;47.75;99531.19;5086726;28;20358;-69
2023/07/09 02:41:38;;;;;;;6.35;4.78;;;;;;;21.97;47.67;99528.78;5086415;28;20182;-69
2023/07/09 02:44:05;;;;;;;6.18;5.00;;;;;;;21.37;47.59;99418.72;5086618;28;20041;-69
2023/07/09 02:46:32;;;;;;;5.82;4.75;;;;;;;21.98;47.97;99535.88;5086590;28;20055;-69
2023/07/09 02:49:00;;;;;;;7.13;5.43;;;;;;;21.92;48.10;99548.13;5086085;28;20082;-69
2023/07/09 02:51:27;;;;;;;5.88;4.47;;;;;;;21.88;47.75;99544.03;5086179;28;20044;-69
2023/07/09 02:53:54;;;;;;;5.50;4.82;;;;;;;21.91;48.17;99537.50;5085966;28;20111;-69
2023/07/09 02:56:21;;;;;;;7.38;5.30;;;;;;;21.88;48.16;99544.03;5086314;28;20102;-69
2023/07/09 02:58:47;;;;;;;5.85;4.43;;;;;;;21.77;48.03;99546.94;5086152;28;20051;-70
2023/07/09 03:01:15;;;;;;;7.00;4.50;;;;;;;21.78;48.14;99540.53;5086346;28;20044;-70
2023/07/09 03:03:41;;;;;;;6.65;4.40;;;;;;;21.78;48.11;99548.63;5086313;28;20059;-69
2023/07/09 03:06:10;;;;;;;6.05;4.03;;;;;;;21.76;47.74;99540.69;5086049;28;20086;-69
2023/07/09 03:08:37;;;;;;;6.05;4.32;;;;;;;21.69;48.12;99544.97;5086243;28;20047;-69
2023/07/09 03:11:10;;;;;;;7.45;4.72;;;;;;;21.70;48.05;99543.97;5086501;28;20204;-69
2023/07/09 03:13:37;;;;;;;4.85;3.75;;;;;;;21.64;48.37;99549.97;5085861;28;20097;-68
2023/07/09 03:16:04;;;;;;;8.40;4.40;;;;;;;21.67;47.93;99555.06;5085588;28;20258;-69
2023/07/09 03:18:31;;;;;;;5.18;4.07;;;;;;;21.00;48.08;99469.09;5085835;28;20083;-69
2023/07/09 03:20:58;;;;;;;5.68;4.93;;;;;;;21.66;48.30;99563.31;5085854;28;20040;-69
2023/07/09 03:23:26;;;;;;;5.38;4.57;;;;;;;21.66;48.09;99563.31;5086124;28;20093;-69
2023/07/09 03:25:53;;;;;;;6.47;4.88;;;;;;;21.67;48.03;99562.31;5085353;28;20052;-69
2023/07/09 03:28:19;;;;;;;10.80;5.03;;;;;;;21.68;47.90;99567.56;5085478;28;20052;-69
2023/07/09 03:30:48;;;;;;;7.18;4.75;;;;;;;21.65;48.01;99569.72;5085448;28;20094;-69
2023/07/09 03:33:16;;;;;;;7.43;4.80;;;;;;;21.58;48.41;99563.22;5086275;28;20165;-71
2023/07/09 03:35:43;;;;;;;5.13;4.25;;;;;;;21.60;48.55;99569.31;5084452;28;20044;-69
2023/07/09 03:38:11;;;;;;;8.70;4.47;;;;;;;21.64;48.41;99563.47;5085786;28;20086;-69
2023/07/09 03:40:40;;;;;;;7.32;4.63;;;;;;;21.56;48.79;99559.81;5085414;28;20044;-70
2023/07/09 03:43:06;;;;;;;7.05;5.03;;;;;;;21.52;48.39;99566.50;5085690;28;20204;-70
2023/07/09 03:45:34;;;;;;;4.85;4.00;;;;;;;21.48;48.69;99559.72;5085565;28;20109;-69
2023/07/09 03:48:00;;;;;;;5.85;3.90;;;;;;;21.39;48.62;99562.31;5085629;28;20044;-69
2023/07/09 03:50:27;;;;;;;6.70;4.70;;;;;;;21.46;48.78;99570.66;5085577;28;20060;-70
2023/07/09 03:52:54;;;;;;;7.97;4.47;;;;;;;21.51;48.32;99560.25;5085531;28;20308;-69
2023/07/09 03:55:21;;;;;;;6.55;4.32;;;;;;;21.53;48.29;99558.28;5085453;28;20056;-70
2023/07/09 03:57:49;;;;;;;6.43;4.50;;;;;;;21.50;48.49;99558.56;5085513;28;20110;-70
2023/07/09 04:00:16;;;;;;;7.70;4.72;;;;;;;21.48;48.59;99557.03;5085474;28;20335;-70
2023/07/09 04:02:44;;;;;;;6.18;4.65;;;;;;;21.55;48.70;99558.97;5085429;28;20040;-70
2023/07/09 04:05:11;;;;;;;6.50;4.78;;;;;;;21.39;49.10;99562.31;5085150;28;20200;-70
2023/07/09 04:07:38;;;;;;;6.53;4.50;;;;;;;21.45;49.23;99564.41;5085130;28;20040;-70
2023/07/09 04:10:06;;;;;;;7.03;5.35;;;;;;;21.55;48.98;99563.50;5085386;28;20040;-70
2023/07/09 04:12:32;;;;;;;7.50;5.10;;;;;;;21.46;49.13;99562.56;5085338;28;20057;-69
2023/07/09 04:15:00;;;;;;;8.40;4.90;;;;;;;21.50;49.34;99563.13;5084963;28;20044;-70
2023/07/09 04:17:27;;;;;;;13.82;5.68;;;;;;;21.48;49.76;99559.72;5085327;28;20107;-70
2023/07/09 04:19:54;;;;;;;6.88;4.88;;;;;;;21.26;50.07;99539.38;5085287;28;20060;-70
2023/07/09 04:22:21;;;;;;;6.85;4.57;;;;;;;21.48;49.54;99562.41;5085524;28;20070;-70
2023/07/09 04:24:47;;;;;;;6.68;4.28;;;;;;;21.38;50.06;99557.91;5086753;28;20262;-70
2023/07/09 04:27:14;;;;;;;6.43;4.38;;;;;;;21.37;50.35;99550.81;5088712;28;20049;-69
2023/07/09 04:29:41;;;;;;;5.57;4.10;;;;;;;21.40;50.18;99553.22;5088688;28;20051;-70
2023/07/09 04:32:15;;;;;;;5.35;4.55;;;;;;;21.51;50.06;99564.81;5089146;28;20040;-70
2023/07/09 04:34:42;;;;;;;6.07;4.90;;;;;;;21.46;50.12;99563.41;5089133;28;20116;-70
2023/07/09 04:37:11;;;;;;;5.35;4.18;;;;;;;21.44;50.25;99570.81;5088471;28;20052;-70
2023/07/09 04:39:38;;;;;;;6.40;4.40;;;;;;;21.50;50.33;99565.81;5089003;28;20040;-70
2023/07/09 04:42:06;;;;;;;8.57;4.93;;;;;;;21.48;50.11;99568.66;5087527;28;20071;-70
2023/07/09 04:44:33;;;;;;;6.28;4.90;;;;;;;21.48;50.54;99570.50;5088591;28;20314;-70
2023/07/09 04:47:00;;;;;;;8.20;5.05;;;;;;;21.38;50.43;99567.84;5088369;28;20048;-69
2023/07/09 04:49:28;;;;;;;5.57;4.90;;;;;;;21.52;50.33;99588.09;5088493;28;20308;-69
2023/07/09 04:51:56;;;;;;;5.63;4.45;;;;;;;21.54;50.54;99588.78;5088397;28;20044;-69
2023/07/09 04:54:23;;;;;;;15.35;5.20;;;;;;;21.59;50.60;99591.88;5088526;28;20108;-69
2023/07/09 04:56:49;;;;;;;5.90;4.45;;;;;;;21.62;50.71;99605.91;5088134;28;20388;-69
2023/07/09 04:59:16;;;;;;;8.40;4.72;;;;;;;21.63;50.97;99606.75;5088680;28;20041;-69
2023/07/09 05:01:43;;;;;;;5.45;4.50;;;;;;;21.61;51.06;99601.53;5088365;28;20045;-69
2023/07/09 05:04:09;;;;;;;6.70;4.47;;;;;;;21.61;51.03;99600.66;5088364;28;20052;-69
2023/07/09 05:06:38;;;;;;;9.88;4.80;;;;;;;21.71;50.43;99599.63;5087982;28;20339;-70
2023/07/09 05:09:04;;;;;;;6.80;4.80;;;;;;;21.70;51.01;99608.72;5088280;28;20297;-69
2023/07/09 05:11:34;;;;;;;6.00;4.95;;;;;;;21.71;50.97;99602.31;5088193;28;20063;-69
2023/07/09 05:14:01;;;;;;;6.93;5.00;;;;;;;21.67;51.03;99606.31;5087911;28;20048;-69
2023/07/09 05:16:27;;;;;;;6.75;4.63;;;;;;;21.62;51.35;99605.91;5088070;28;20041;-69
2023/07/09 05:18:54;;;;;;;6.15;5.32;;;;;;;21.66;51.26;99603.78;5088080;28;20120;-69
2023/07/09 05:21:21;;;;;;;6.50;4.97;;;;;;;21.80;50.38;99608.69;5088209;28;20044;-69
2023/07/09 05:23:49;;;;;;;8.60;4.05;;;;;;;21.87;50.49;99603.56;5088242;28;20044;-69
2023/07/09 05:26:15;;;;;;;5.93;4.97;;;;;;;21.90;50.62;99603.25;5088051;28;20056;-69
2023/07/09 05:28:42;;;;;;;6.93;4.63;;;;;;;21.87;50.88;99603.56;5087923;28;20044;-69
2023/07/09 05:31:09;;;;;;;10.40;7.97;;;;;;;21.96;49.82;99602.66;5087833;28;20049;-69
2023/07/09 05:33:36;;;;;;;7.50;5.60;;;;;;;21.92;50.25;99606.66;5087866;28;20052;-69
2023/07/09 05:36:02;;;;;;;9.77;5.60;;;;;;;21.91;49.53;99611.19;5087483;28;20116;-69
2023/07/09 05:38:30;;;;;;;6.60;4.70;;;;;;;21.99;49.75;99615.84;5087412;28;20040;-69
2023/07/09 05:41:03;;;;;;;11.07;5.50;;;;;;;22.09;49.85;99613.94;5087623;28;20063;-69
2023/07/09 05:43:30;;;;;;;6.43;5.20;;;;;;;22.18;49.52;99621.13;5087633;28;20086;-69
2023/07/09 05:45:56;;;;;;;6.82;5.00;;;;;;;22.17;49.79;99605.91;5087863;28;20040;-70
2023/07/09 05:48:23;;;;;;;10.95;5.75;;;;;;;22.16;49.70;99616.88;5087799;28;20093;-70
2023/07/09 05:50:54;;;;;;;9.52;6.38;;;;;;;22.15;49.40;99625.97;5087703;28;20292;-70
2023/07/09 05:53:20;;;;;;;6.47;4.95;;;;;;;22.24;49.28;99627.75;5087111;28;20362;-71
2023/07/09 05:55:47;;;;;;;5.85;5.13;;;;;;;22.24;49.25;99622.34;5086969;28;20220;-70
2023/07/09 05:58:15;;;;;;;8.10;5.15;;;;;;;22.20;49.85;99621.81;5087311;28;20040;-70
2023/07/09 06:00:42;;;;;;;7.53;5.07;;;;;;;22.29;49.46;99628.16;5087286;28;20204;-70
2023/07/09 06:03:09;;;;;;;9.25;4.90;;;;;;;22.28;49.53;99624.59;5087592;28;20319;-70
2023/07/09 06:05:36;;;;;;;5.60;4.93;;;;;;;21.22;49.39;99441.81;5087180;28;20044;-70
2023/07/09 06:08:03;;;;;;;6.45;4.72;;;;;;;22.37;49.57;99626.38;5087392;28;20045;-68
2023/07/09 06:10:30;;;;;;;5.22;4.45;;;;;;;22.34;49.95;99626.69;5086744;28;20040;-69
2023/07/09 06:12:58;;;;;;;5.70;4.70;;;;;;;22.40;49.54;99625.22;5086979;28;20041;-68
2023/07/09 06:15:26;;;;;;;6.05;4.78;;;;;;;22.45;49.00;99622.94;5086964;28;20048;-69
2023/07/09 06:17:53;;;;;;;7.13;5.00;;;;;;;22.45;48.38;99622.09;5086793;28;20045;-69
2023/07/09 06:20:19;;;;;;;7.85;5.05;;;;;;;22.53;48.56;99633.81;5086784;28;20044;-69
2023/07/09 06:22:46;;;;;;;7.03;5.47;;;;;;;22.57;48.27;99639.81;5087065;28;20097;-69
2023/07/09 06:25:13;;;;;;;5.68;4.75;;;;;;;22.56;48.44;99630.84;5086258;28;20220;-69
2023/07/09 06:27:40;;;;;;;7.78;5.60;;;;;;;22.64;48.40;99633.63;5086436;28;20063;-69
2023/07/09 06:30:08;;;;;;;11.25;6.05;;;;;;;22.67;48.58;99630.63;5086923;28;20048;-69
2023/07/09 06:32:36;;;;;;;7.82;5.97;;;;;;;22.72;47.94;99630.16;5086569;28;20055;-69
2023/07/09 06:35:03;;;;;;;7.03;5.13;;;;;;;22.73;47.82;99637.25;5086322;28;20040;-69
2023/07/09 06:37:30;;;;;;;6.85;5.28;;;;;;;22.79;47.83;99633.06;5086718;28;20247;-69
2023/07/09 06:39:56;;;;;;;6.47;4.97;;;;;;;22.81;47.83;99637.31;5086429;28;20052;-69
2023/07/09 06:42:23;;;;;;;7.00;5.20;;;;;;;22.78;47.59;99636.78;5086407;28;20308;-69
2023/07/09 06:44:50;;;;;;;5.40;4.78;;;;;;;22.59;47.45;99589.19;5086091;28;20259;-68
2023/07/09 06:47:16;;;;;;;5.80;4.95;;;;;;;22.93;47.33;99636.06;5085327;28;20301;-69
2023/07/09 06:49:44;;;;;;;7.07;5.30;;;;;;;23.00;47.14;99634.44;5086411;28;20040;-69
2023/07/09 06:52:11;;;;;;;5.75;5.07;;;;;;;22.98;46.81;99641.84;5085539;28;20242;-69
2023/07/09 06:54:38;;;;;;;7.75;5.32;;;;;;;23.02;46.57;99637.84;5086264;28;20293;-69
2023/07/09 06:57:05;;;;;;;8.25;5.65;;;;;;;23.04;46.92;99640.38;5086120;28;20055;-70
2023/07/09 06:59:32;;;;;;;5.82;5.20;;;;;;;23.10;46.61;99638.91;5085861;28;20052;-70
2023/07/09 07:01:58;;;;;;;9.68;5.40;;;;;;;23.09;46.43;99611.03;5086113;28;20094;-69
2023/07/09 07:04:26;;;;;;;7.40;4.82;;;;;;;23.31;46.53;99637.56;5085795;28;20055;-70
2023/07/09 07:06:56;;;;;;;7.88;6.43;;;;;;;23.39;46.56;99628.66;5085771;28;20048;-69
2023/07/09 07:09:23;;;;;;;12.30;5.75;;;;;;;23.50;46.43;99632.94;5085983;28;20090;-70
2023/07/09 07:11:50;;;;;;;11.23;5.80;;;;;;;23.26;46.35;99583.13;5085968;28;20040;-69
2023/07/09 07:14:17;;;;;;;6.88;5.78;;;;;;;23.63;45.91;99623.38;5086159;28;20040;-70
2023/07/09 07:16:44;;;;;;;7.30;4.72;;;;;;;23.68;45.31;99625.59;5085800;28;20048;-69
2023/07/09 07:19:10;;;;;;;6.78;5.38;;;;;;;23.88;45.78;99626.19;5085052;28;20166;-70
2023/07/09 07:21:37;;;;;;;6.75;4.82;;;;;;;24.13;45.67;99624.44;5085512;28;20293;-69
2023/07/09 07:24:06;;;;;;;6.30;4.78;;;;;;;24.29;44.68;99619.06;5085541;28;20044;-70
2023/07/09 07:26:32;;;;;;;9.48;5.38;;;;;;;24.35;44.66;99614.84;5085639;28;20040;-69
2023/07/09 07:28:59;;;;;;;6.78;4.80;;;;;;;24.47;44.80;99624.34;5085665;28;20094;-69
2023/07/09 07:31:26;;;;;;;6.30;5.18;;;;;;;24.79;44.08;99619.00;5085440;28;20056;-69
2023/07/09 07:33:52;;;;;;;5.63;4.38;;;;;;;24.95;43.53;99610.00;5085308;28;20040;-69
2023/07/09 07:36:19;;;;;;;7.75;5.10;;;;;;;25.11;43.45;99609.19;5085458;28;20060;-69
2023/07/09 07:38:46;;;;;;;7.88;5.28;;;;;;;25.01;42.71;99605.81;5085328;28;20041;-69
2023/07/09 07:41:14;;;;;;;6.40;5.07;;;;;;;25.19;43.09;99599.16;5085579;28;20246;-69
2023/07/09 07:43:41;;;;;;;6.32;5.22;;;;;;;25.50;42.48;99609.28;5085794;28;20053;-69
2023/07/09 07:46:08;;;;;;;7.95;4.85;;;;;;;25.51;42.31;99605.56;5085396;28;20044;-69
2023/07/09 07:48:35;;;;;;;6.53;4.78;;;;;;;25.56;42.40;99595.88;5085625;28;20045;-69
2023/07/09 07:51:02;;;;;;;9.43;5.90;;;;;;;25.84;42.35;99599.00;5085484;28;20110;-69
2023/07/09 07:53:30;;;;;;;6.30;4.93;;;;;;;26.03;42.19;99581.44;5085472;28;20044;-69
2023/07/09 07:55:57;;;;;;;6.45;4.88;;;;;;;26.20;41.59;99596.63;5085356;28;20086;-69
2023/07/09 07:58:25;;;;;;;6.82;5.18;;;;;;;26.41;41.69;99597.84;5086684;28;20048;-70
2023/07/09 08:00:56;;;;;;;6.50;5.03;;;;;;;26.60;40.81;99597.41;5089554;28;20094;-69
2023/07/09 08:03:23;;;;;;;6.93;4.40;;;;;;;26.69;40.83;99596.31;5089540;28;20090;-69
2023/07/09 08:05:50;;;;;;;8.18;5.35;;;;;;;26.84;40.60;99597.19;5089934;28;20205;-70
2023/07/09 08:08:17;;;;;;;7.28;5.13;;;;;;;27.14;39.71;99589.09;5089452;28;20219;-69
2023/07/09 08:10:43;;;;;;;8.10;5.40;;;;;;;27.27;39.69;99583.06;5089364;28;20044;-70
2023/07/09 08:13:10;;;;;;;8.00;5.18;;;;;;;27.48;38.49;99591.31;5089039;28;20053;-70
2023/07/09 08:15:38;;;;;;;7.63;5.47;;;;;;;27.34;39.18;99597.59;5089255;28;20044;-70
2023/07/09 08:18:05;;;;;;;6.82;4.90;;;;;;;27.21;39.17;99600.09;5089129;28;20354;-70
2023/07/09 08:20:33;;;;;;;7.75;4.55;;;;;;;27.29;38.84;99576.38;5089087;28;20122;-70
2023/07/09 08:22:59;;;;;;;6.68;4.57;;;;;;;27.55;38.70;99594.97;5088255;28;20055;-70
2023/07/09 08:25:26;;;;;;;5.18;4.60;;;;;;;27.79;38.13;99593.88;5088613;28;20064;-70
2023/07/09 08:27:53;;;;;;;6.10;4.88;;;;;;;27.72;38.33;99591.06;5088956;28;20056;-69
2023/07/09 08:30:19;;;;;;;6.70;5.65;;;;;;;27.86;38.17;99592.09;5089214;28;20048;-69
2023/07/09 08:32:48;;;;;;;8.13;4.88;;;;;;;27.85;37.47;99597.75;5089073;28;20040;-69
2023/07/09 08:35:15;;;;;;;5.72;4.80;;;;;;;27.79;37.86;99593.88;5089117;28;20053;-69
2023/07/09 08:37:42;;;;;;;7.18;4.80;;;;;;;28.01;37.58;99598.38;5088456;28;20264;-69
2023/07/09 08:40:14;;;;;;;6.43;4.65;;;;;;;28.35;37.50;99605.06;5088990;28;20040;-69
2023/07/09 08:42:45;;;;;;;7.40;4.70;;;;;;;28.61;36.46;99596.34;5088423;28;20052;-69
2023/07/09 08:45:26;;;;;;;8.43;5.47;;;;;;;28.71;36.61;99588.66;5088599;28;20040;-69
2023/07/09 08:48:03;;;;;;;8.20;5.90;;;;;;;28.82;36.17;99596.31;5088172;28;20209;-69
2023/07/09 08:50:37;;;;;;;5.93;4.60;;;;;;;28.87;36.44;99580.22;5088393;28;20115;-69
2023/07/09 08:53:05;;;;;;;6.75;5.13;;;;;;;28.86;35.51;99585.88;5088205;28;20060;-70
2023/07/09 08:55:40;;;;;;;5.25;4.60;;;;;;;28.67;36.08;99592.81;5088770;28;20055;-69
2023/07/09 08:58:22;;;;;;;4.55;3.80;;;;;;;28.75;35.64;99600.88;5088113;28;20241;-70
2023/07/09 09:00:54;;;;;;;7.55;5.05;;;;;;;28.82;36.13;99592.75;5088435;28;20289;-70
2023/07/09 09:03:31;;;;;;;6.47;4.80;;;;;;;28.53;35.81;99536.47;5088299;28;20052;-70
2023/07/09 09:05:58;;;;;;;8.05;4.40;;;;;;;28.96;35.27;99608.19;5088234;28;20037;-69
2023/07/09 09:08:37;;;;;;;5.57;4.63;;;;;;;28.83;35.15;99613.53;5088484;28;20054;-70
2023/07/09 09:11:13;;;;;;;5.07;4.32;;;;;;;29.04;34.50;99597.16;5087348;28;20067;-70
2023/07/09 09:13:40;;;;;;;7.47;4.50;;;;;;;29.18;34.08;99598.97;5087948;28;20375;-70
2023/07/09 09:16:22;;;;;;;5.63;4.35;;;;;;;29.28;34.07;99598.59;5088074;28;20110;-70
2023/07/09 09:18:51;;;;;;;6.00;4.10;;;;;;;28.87;33.54;99550.19;5087191;28;20312;-69
2023/07/09 09:21:24;;;;;;;5.45;4.22;;;;;;;29.18;33.30;99593.50;5088304;28;20037;-69
2023/07/09 09:23:53;;;;;;;5.03;4.22;;;;;;;28.59;34.20;99503.81;5088256;28;20094;-70
2023/07/09 09:26:24;;;;;;;7.03;4.80;;;;;;;29.14;33.88;99589.47;5047879;28;20049;-70
2023/07/09 09:28:53;;;;;;;9.20;4.70;;;;;;;29.59;33.29;99588.13;5047854;28;20049;-70
2023/07/09 09:31:19;;;;;;;6.13;5.53;;;;;;;29.87;33.39;99590.78;5048367;28;20038;-70
2023/07/09 09:33:48;;;;;;;6.25;5.25;;;;;;;29.94;33.07;99585.34;5047400;28;20041;-70
2023/07/09 09:36:20;;;;;;;5.15;4.55;;;;;;;30.00;33.19;99588.09;5048062;28;20239;-70
2023/07/09 09:38:47;;;;;;;5.45;4.47;;;;;;;30.00;32.91;99588.09;5046790;28;20309;-71
2023/07/09 09:41:15;;;;;;;6.45;4.78;;;;;;;29.99;31.39;99586.41;5047749;28;20049;-71
2023/07/09 09:43:45;;;;;;;4.82;4.13;;;;;;;30.02;31.65;99587.91;5047592;28;20053;-70
2023/07/09 09:46:18;;;;;;;6.20;4.28;;;;;;;30.08;31.71;99592.53;5047585;28;20045;-71
2023/07/09 09:48:47;;;;;;;7.65;5.18;;;;;;;29.97;32.16;99583.03;5047498;28;20049;-69
2023/07/09 09:51:15;;;;;;;6.93;5.00;;;;;;;29.82;31.87;99592.44;5046927;28;20045;-70
2023/07/09 09:53:49;;;;;;;4.95;4.30;;;;;;;30.12;32.08;99582.88;5047701;28;20045;-70
2023/07/09 09:56:21;;;;;;;6.00;4.80;;;;;;;30.36;31.79;99589.75;5047152;28;20113;-70
2023/07/09 09:58:53;;;;;;;6.47;4.97;;;;;;;30.42;31.75;99582.63;5046760;28;20083;-71
2023/07/09 10:01:20;;;;;;;6.65;4.93;;;;;;;30.50;31.48;99586.00;5047263;28;20112;-70
2023/07/09 10:03:50;;;;;;;5.72;4.65;;;;;;;30.30;31.79;99588.69;5047295;28;20045;-70
2023/07/09 10:06:20;;;;;;;5.18;4.38;;;;;;;30.19;30.77;99582.94;5047108;28;20061;-70
2023/07/09 10:08:56;;;;;;;8.20;4.80;;;;;;;30.31;31.26;99579.44;5047139;28;20204;-70
2023/07/09 10:11:32;;;;;;;5.15;4.53;;;;;;;30.17;31.37;99579.56;5047271;28;20044;-70
2023/07/09 10:14:04;;;;;;;5.10;4.38;;;;;;;30.24;30.98;99580.47;5046782;28;20075;-70
2023/07/09 10:16:37;;;;;;;7.00;5.03;;;;;;;30.26;30.09;99568.28;5047017;28;20348;-69
2023/07/09 10:19:17;;;;;;;6.53;5.32;;;;;;;30.57;30.19;99575.06;5046927;28;20111;-70
2023/07/09 10:21:52;;;;;;;5.38;4.25;;;;;;;30.66;30.61;99574.66;5046782;28;20316;-70
2023/07/09 10:24:37;;;;;;;6.40;5.22;;;;;;;30.79;30.03;99564.81;5053809;28;20063;-70
2023/07/09 10:27:12;;;;;;;6.72;4.75;;;;;;;30.60;30.64;99561.81;5086377;28;20106;-70
2023/07/09 10:30:01;;;;;;;5.43;4.65;;;;;;;30.61;30.16;99568.13;5087513;28;20180;-70
2023/07/09 10:32:42;;;;;;;5.72;5.05;;;;;;;30.71;30.17;99570.47;5086590;28;20052;-71
2023/07/09 10:35:20;;;;;;;5.80;4.82;;;;;;;30.74;30.56;99565.44;5086557;28;20315;-69
2023/07/09 10:38:04;;;;;;;5.47;4.88;;;;;;;30.80;29.63;99564.59;5086478;28;20060;-70
2023/07/09 10:40:39;;;;;;;6.45;4.50;;;;;;;31.00;29.74;99559.13;5086750;28;20040;-69
2023/07/09 10:43:11;;;;;;;4.95;4.38;;;;;;;30.95;29.22;99557.00;5086122;28;20071;-69
2023/07/09 10:45:43;;;;;;;5.37;4.87;;;;;;;30.47;29.50;99555.50;5086384;28;20086;-68
2023/07/09 10:48:16;;;;;;;5.63;4.50;;;;;;;30.59;29.06;99560.13;5086336;28;20044;-69
2023/07/09 10:50:48;;;;;;;5.32;4.22;;;;;;;30.64;29.97;99552.13;5086051;28;20082;-69
2023/07/09 10:53:26;;;;;;;6.80;4.63;;;;;;;30.61;29.89;99548.97;5086094;28;20052;-69
2023/07/09 10:55:58;;;;;;;6.75;3.90;;;;;;;30.36;33.57;99553.38;5086189;28;20045;-70
2023/07/09 10:58:33;;;;;;;5.13;4.10;;;;;;;30.19;31.30;99547.41;5086408;28;20056;-71
2023/07/09 11:01:00;;;;;;;5.80;4.82;;;;;;;30.10;33.28;99546.72;5085845;28;20305;-71
2023/07/09 11:03:38;;;;;;;10.30;7.95;;;;;;;30.13;32.06;99551.78;5086322;28;20052;-70
2023/07/09 11:06:13;;;;;;;5.35;4.82;;;;;;;29.94;31.33;99549.81;5085969;28;20064;-71
2023/07/09 11:08:41;;;;;;;4.88;4.38;;;;;;;29.58;32.96;99477.22;5085984;28;20055;-71
2023/07/09 11:11:14;;;;;;;4.82;4.30;;;;;;;29.87;32.91;99535.31;5085716;28;20063;-70
2023/07/09 11:13:45;;;;;;;7.22;4.82;;;;;;;29.97;33.13;99508.44;5085952;28;20044;-70
2023/07/09 11:16:16;;;;;;;5.53;4.78;;;;;;;30.06;33.15;99541.88;5085902;28;20040;-70
2023/07/09 11:18:56;;;;;;;5.18;4.47;;;;;;;30.18;32.57;99532.91;5085495;28;20045;-70
2023/07/09 11:21:23;;;;;;;7.47;4.65;;;;;;;30.06;31.77;99536.41;5085834;28;20040;-70
2023/07/09 11:23:52;;;;;;;5.97;4.07;;;;;;;29.98;30.12;99529.25;5085811;28;20060;-70
2023/07/09 11:26:26;;;;;;;5.68;5.07;;;;;;;30.00;30.75;99529.88;5085744;28;20046;-70
2023/07/09 11:28:54;;;;;;;6.55;5.43;;;;;;;29.87;32.44;99538.03;5085819;28;20048;-70
2023/07/09 11:31:32;;;;;;;8.45;6.43;;;;;;;29.99;31.51;99534.50;5085302;28;20044;-70
2023/07/09 11:34:08;;;;;;;6.75;4.80;;;;;;;29.72;30.44;99538.19;5084071;28;20045;-71
2023/07/09 11:36:46;;;;;;;5.60;4.13;;;;;;;29.88;31.28;99539.72;5085960;28;20047;-71
2023/07/09 11:39:20;;;;;;;7.15;4.43;;;;;;;29.93;31.38;99535.31;5084517;28;20040;-71
2023/07/09 11:41:48;;;;;;;8.48;4.30;;;;;;;29.87;27.69;99535.31;5086485;28;20044;-70
2023/07/09 11:44:18;;;;;;;11.38;4.82;;;;;;;29.80;31.89;99538.00;5085891;28;20054;-71
